sensor_id;sensor_type;location;lat;lon;timestamp;pressure;altitude;pressure_sealevel;temperature;humidity
75650;BME280;64245;51.282;22.494;2023-02-01T00:01:22;98098.03;;;-0.28;100.00
75650;BME280;64245;51.282;22.494;2023-02-01T00:03:48;98105.66;;;-0.23;100.00
75650;BME280;64245;51.282;22.494;2023-02-01T00:06:13;98109.63;;;-0.18;100.00
75650;BME280;64245;51.282;22.494;2023-02-01T00:08:39;98111.88;;;-0.24;100.00
75650;BME280;64245;51.282;22.494;2023-02-01T00:11:07;98110.94;;;-0.23;100.00
75650;BME280;64245;51.282;22.494;2023-02-01T00:13:34;98098.75;;;-0.26;100.00
75650;BME280;64245;51.282;22.494;2023-02-01T00:16:12;98098.22;;;-0.31;100.00
75650;BME280;64245;51.282;22.494;2023-02-01T00:18:38;98094.75;;;-0.31;100.00
75650;BME280;64245;51.282;22.494;2023-02-01T00:21:04;98095.59;;;-0.31;100.00
75650;BME280;64245;51.282;22.494;2023-02-01T00:23:34;98093.69;;;-0.29;100.00
75650;BME280;64245;51.282;22.494;2023-02-01T00:26:05;98074.84;;;-0.37;100.00
75650;BME280;64245;51.282;22.494;2023-02-01T00:28:31;98062.56;;;-0.38;100.00
75650;BME280;64245;51.282;22.494;2023-02-01T00:31:01;98074.00;;;-0.25;100.00
75650;BME280;64245;51.282;22.494;2023-02-01T00:33:28;98050.81;;;-0.34;100.00
75650;BME280;64245;51.282;22.494;2023-02-01T00:35:57;98051.88;;;-0.24;100.00
75650;BME280;64245;51.282;22.494;2023-02-01T00:38:25;98057.28;;;-0.25;100.00
75650;BME280;64245;51.282;22.494;2023-02-01T00:40:50;98050.09;;;-0.23;100.00
75650;BME280;64245;51.282;22.494;2023-02-01T00:43:16;98048.56;;;-0.15;100.00
75650;BME280;64245;51.282;22.494;2023-02-01T00:45:42;98043.19;;;-0.13;100.00
75650;BME280;64245;51.282;22.494;2023-02-01T00:48:07;98042.75;;;-0.07;100.00
75650;BME280;64245;51.282;22.494;2023-02-01T00:50:33;98030.69;;;-0.11;100.00
75650;BME280;64245;51.282;22.494;2023-02-01T00:52:59;98044.13;;;-0.02;100.00
75650;BME280;64245;51.282;22.494;2023-02-01T00:55:25;98044.84;;;0.00;100.00
75650;BME280;64245;51.282;22.494;2023-02-01T00:57:51;98000.19;;;-0.04;100.00
75650;BME280;64245;51.282;22.494;2023-02-01T01:00:16;98025.50;;;0.00;100.00
75650;BME280;64245;51.282;22.494;2023-02-01T01:02:42;98015.44;;;-0.08;100.00
75650;BME280;64245;51.282;22.494;2023-02-01T01:05:08;98014.38;;;-0.05;100.00
75650;BME280;64245;51.282;22.494;2023-02-01T01:07:34;98017.25;;;-0.08;100.00
75650;BME280;64245;51.282;22.494;2023-02-01T01:09:59;97988.03;;;-0.07;100.00
75650;BME280;64245;51.282;22.494;2023-02-01T01:12:25;98001.94;;;0.08;100.00
75650;BME280;64245;51.282;22.494;2023-02-01T01:14:51;97992.22;;;0.09;100.00
75650;BME280;64245;51.282;22.494;2023-02-01T01:17:17;97998.34;;;0.09;100.00
75650;BME280;64245;51.282;22.494;2023-02-01T01:19:42;98008.59;;;0.14;100.00
75650;BME280;64245;51.282;22.494;2023-02-01T01:22:08;97999.41;;;0.07;100.00
75650;BME280;64245;51.282;22.494;2023-02-01T01:24:34;98000.19;;;-0.04;100.00
75650;BME280;64245;51.282;22.494;2023-02-01T01:27:00;97986.66;;;-0.12;100.00
75650;BME280;64245;51.282;22.494;2023-02-01T01:29:25;97985.28;;;-0.18;100.00
75650;BME280;64245;51.282;22.494;2023-02-01T01:31:51;98001.03;;;-0.04;100.00
75650;BME280;64245;51.282;22.494;2023-02-01T01:34:16;97985.50;;;-0.08;100.00
75650;BME280;64245;51.282;22.494;2023-02-01T01:36:42;97982.16;;;0.01;100.00
75650;BME280;64245;51.282;22.494;2023-02-01T01:39:08;97995.00;;;-0.06;100.00
75650;BME280;64245;51.282;22.494;2023-02-01T01:41:33;97971.97;;;-0.16;100.00
75650;BME280;64245;51.282;22.494;2023-02-01T01:44:02;97977.34;;;-0.18;100.00
75650;BME280;64245;51.282;22.494;2023-02-01T01:46:36;97989.63;;;-0.04;100.00
75650;BME280;64245;51.282;22.494;2023-02-01T01:49:17;97967.63;;;-0.17;100.00
75650;BME280;64245;51.282;22.494;2023-02-01T01:51:48;97982.34;;;0.11;100.00
75650;BME280;64245;51.282;22.494;2023-02-01T01:54:17;98000.63;;;0.26;100.00
75650;BME280;64245;51.282;22.494;2023-02-01T01:56:46;97984.00;;;0.24;100.00
75650;BME280;64245;51.282;22.494;2023-02-01T01:59:14;97988.00;;;0.30;100.00
75650;BME280;64245;51.282;22.494;2023-02-01T02:01:40;97980.91;;;0.30;100.00
75650;BME280;64245;51.282;22.494;2023-02-01T02:04:07;97969.16;;;0.22;100.00
75650;BME280;64245;51.282;22.494;2023-02-01T02:06:39;97987.72;;;0.46;100.00
75650;BME280;64245;51.282;22.494;2023-02-01T02:09:05;97977.19;;;0.33;100.00
75650;BME280;64245;51.282;22.494;2023-02-01T02:11:31;97983.56;;;0.30;100.00
75650;BME280;64245;51.282;22.494;2023-02-01T02:13:57;97980.22;;;0.40;100.00
75650;BME280;64245;51.282;22.494;2023-02-01T02:19:32;97996.91;;;0.53;100.00
75650;BME280;64245;51.282;22.494;2023-02-01T02:31:36;97976.22;;;0.34;100.00
75650;BME280;64245;51.282;22.494;2023-02-01T02:34:25;97991.38;;;0.56;100.00
75650;BME280;64245;51.282;22.494;2023-02-01T02:37:06;98000.19;;;0.67;100.00
75650;BME280;64245;51.282;22.494;2023-02-01T02:39:55;97997.78;;;0.64;100.00
75650;BME280;64245;51.282;22.494;2023-02-01T02:42:29;98005.63;;;0.66;100.00
75650;BME280;64245;51.282;22.494;2023-02-01T02:45:35;98007.00;;;0.83;99.65
75650;BME280;64245;51.282;22.494;2023-02-01T02:48:28;98009.19;;;0.89;99.10
75650;BME280;64245;51.282;22.494;2023-02-01T02:51:15;98011.22;;;0.85;98.57
75650;BME280;64245;51.282;22.494;2023-02-01T02:54:05;98021.81;;;0.85;98.96
75650;BME280;64245;51.282;22.494;2023-02-01T02:56:53;98009.03;;;0.79;98.60
75650;BME280;64245;51.282;22.494;2023-02-01T02:59:40;98018.22;;;0.86;98.09
75650;BME280;64245;51.282;22.494;2023-02-01T03:02:27;98021.81;;;0.85;98.20
75650;BME280;64245;51.282;22.494;2023-02-01T03:05:12;98019.09;;;0.63;98.80
75650;BME280;64245;51.282;22.494;2023-02-01T03:13:02;98047.81;;;0.80;98.66
75650;BME280;64245;51.282;22.494;2023-02-01T03:15:55;98050.00;;;0.86;98.85
75650;BME280;64245;51.282;22.494;2023-02-01T03:21:08;98025.63;;;0.70;99.03
75650;BME280;64245;51.282;22.494;2023-02-01T03:23:36;98045.03;;;0.71;99.33
75650;BME280;64245;51.282;22.494;2023-02-01T03:26:06;98049.03;;;0.76;99.20
75650;BME280;64245;51.282;22.494;2023-02-01T03:28:34;98058.50;;;0.67;99.74
75650;BME280;64245;51.282;22.494;2023-02-01T03:31:01;98052.75;;;0.50;100.00
75650;BME280;64245;51.282;22.494;2023-02-01T03:33:29;98063.56;;;0.47;99.78
75650;BME280;64245;51.282;22.494;2023-02-01T03:38:55;98071.88;;;0.29;100.00
75650;BME280;64245;51.282;22.494;2023-02-01T03:41:29;98070.50;;;0.24;100.00
75650;BME280;64245;51.282;22.494;2023-02-01T03:44:06;98054.66;;;0.11;100.00
75650;BME280;64245;51.282;22.494;2023-02-01T03:46:38;98075.59;;;0.27;100.00
75650;BME280;64245;51.282;22.494;2023-02-01T03:49:09;98067.53;;;0.28;100.00
75650;BME280;64245;51.282;22.494;2023-02-01T03:51:38;98057.28;;;0.24;100.00
75650;BME280;64245;51.282;22.494;2023-02-01T03:54:07;98086.50;;;0.35;100.00
75650;BME280;64245;51.282;22.494;2023-02-01T03:56:36;98072.78;;;0.41;100.00
75650;BME280;64245;51.282;22.494;2023-02-01T03:59:03;98076.03;;;0.57;100.00
75650;BME280;64245;51.282;22.494;2023-02-01T04:01:30;98086.28;;;0.38;100.00
75650;BME280;64245;51.282;22.494;2023-02-01T04:03:57;98094.06;;;0.40;100.00
75650;BME280;64245;51.282;22.494;2023-02-01T04:06:23;98093.69;;;0.33;100.00
75650;BME280;64245;51.282;22.494;2023-02-01T04:08:50;98087.13;;;0.26;100.00
75650;BME280;64245;51.282;22.494;2023-02-01T04:11:15;98075.94;;;0.10;100.00
75650;BME280;64245;51.282;22.494;2023-02-01T04:13:41;98098.78;;;0.23;100.00
75650;BME280;64245;51.282;22.494;2023-02-01T04:16:07;98090.19;;;0.32;100.00
75650;BME280;64245;51.282;22.494;2023-02-01T04:18:33;98071.88;;;0.29;100.00
75650;BME280;64245;51.282;22.494;2023-02-01T04:20:58;98073.03;;;0.38;100.00
75650;BME280;64245;51.282;22.494;2023-02-01T04:23:24;98061.63;;;0.25;100.00
75650;BME280;64245;51.282;22.494;2023-02-01T04:25:50;98070.97;;;0.42;99.38
75650;BME280;64245;51.282;22.494;2023-02-01T04:28:15;98078.06;;;0.54;99.20
75650;BME280;64245;51.282;22.494;2023-02-01T04:30:41;98090.59;;;0.63;98.58
75650;BME280;64245;51.282;22.494;2023-02-01T04:33:07;98075.44;;;0.41;98.48
75650;BME280;64245;51.282;22.494;2023-02-01T04:35:33;98090.56;;;0.52;99.26
75650;BME280;64245;51.282;22.494;2023-02-01T04:37:59;98095.06;;;0.62;98.56
75650;BME280;64245;51.282;22.494;2023-02-01T04:40:24;98093.94;;;0.54;98.84
75650;BME280;64245;51.282;22.494;2023-02-01T04:42:50;98097.66;;;0.51;98.78
75650;BME280;64245;51.282;22.494;2023-02-01T04:45:15;98106.72;;;0.60;98.47
75650;BME280;64245;51.282;22.494;2023-02-01T04:47:42;98105.78;;;0.61;98.13
75650;BME280;64245;51.282;22.494;2023-02-01T04:50:07;98092.25;;;0.53;98.81
75650;BME280;64245;51.282;22.494;2023-02-01T04:52:36;98101.78;;;0.55;99.01
75650;BME280;64245;51.282;22.494;2023-02-01T04:55:03;98114.44;;;0.63;97.74
75650;BME280;64245;51.282;22.494;2023-02-01T04:57:29;98110.75;;;0.65;97.45
75650;BME280;64245;51.282;22.494;2023-02-01T04:59:55;98096.00;;;0.61;97.66
75650;BME280;64245;51.282;22.494;2023-02-01T05:02:20;98117.09;;;0.63;97.47
75650;BME280;64245;51.282;22.494;2023-02-01T05:04:46;98114.66;;;0.73;96.62
75650;BME280;64245;51.282;22.494;2023-02-01T05:07:12;98103.84;;;0.63;97.27
75650;BME280;64245;51.282;22.494;2023-02-01T05:09:37;98119.00;;;0.74;97.08
75650;BME280;64245;51.282;22.494;2023-02-01T05:12:03;98104.81;;;0.62;96.17
75650;BME280;64245;51.282;22.494;2023-02-01T05:14:47;98118.88;;;0.75;96.46
75650;BME280;64245;51.282;22.494;2023-02-01T05:17:13;98122.59;;;0.73;96.78
75650;BME280;64245;51.282;22.494;2023-02-01T05:19:38;98134.38;;;0.68;96.32
75650;BME280;64245;51.282;22.494;2023-02-01T05:22:04;98112.97;;;0.59;96.63
75650;BME280;64245;51.282;22.494;2023-02-01T05:24:30;98119.31;;;0.69;97.01
75650;BME280;64245;51.282;22.494;2023-02-01T05:26:56;98116.47;;;0.59;97.24
75650;BME280;64245;51.282;22.494;2023-02-01T05:29:21;98103.91;;;0.50;96.86
75650;BME280;64245;51.282;22.494;2023-02-01T05:31:47;98116.78;;;0.67;96.69
75650;BME280;64245;51.282;22.494;2023-02-01T05:34:13;98129.47;;;0.75;96.35
75650;BME280;64245;51.282;22.494;2023-02-01T05:36:39;98133.09;;;0.74;96.64
75650;BME280;64245;51.282;22.494;2023-02-01T05:39:04;98130.53;;;0.73;96.57
75650;BME280;64245;51.282;22.494;2023-02-01T05:41:30;98127.03;;;0.72;96.58
75650;BME280;64245;51.282;22.494;2023-02-01T05:43:56;98134.59;;;0.65;96.66
75650;BME280;64245;51.282;22.494;2023-02-01T05:46:22;98139.25;;;0.62;97.23
75650;BME280;64245;51.282;22.494;2023-02-01T05:48:47;98134.59;;;0.65;96.01
75650;BME280;64245;51.282;22.494;2023-02-01T05:51:13;98130.88;;;0.68;95.88
75650;BME280;64245;51.282;22.494;2023-02-01T05:53:39;98146.44;;;0.73;96.43
75650;BME280;64245;51.282;22.494;2023-02-01T05:56:05;98145.59;;;0.72;96.14
75650;BME280;64245;51.282;22.494;2023-02-01T05:58:31;98146.44;;;0.73;95.84
75650;BME280;64245;51.282;22.494;2023-02-01T06:00:59;98125.72;;;0.54;95.21
75650;BME280;64245;51.282;22.494;2023-02-01T06:03:25;98123.34;;;0.62;95.69
75650;BME280;64245;51.282;22.494;2023-02-01T06:05:51;98128.75;;;0.60;95.42
75650;BME280;64245;51.282;22.494;2023-02-01T06:08:16;98156.72;;;0.64;95.73
75650;BME280;64245;51.282;22.494;2023-02-01T06:10:43;98133.63;;;0.66;95.06
75650;BME280;64245;51.282;22.494;2023-02-01T06:13:08;98142.25;;;0.81;94.58
75650;BME280;64245;51.282;22.494;2023-02-01T06:15:34;98165.16;;;0.82;94.76
75650;BME280;64245;51.282;22.494;2023-02-01T06:18:03;98160.53;;;0.73;96.03
75650;BME280;64245;51.282;22.494;2023-02-01T06:20:29;98142.00;;;0.73;94.74
75650;BME280;64245;51.282;22.494;2023-02-01T06:22:55;98156.25;;;0.83;94.88
75650;BME280;64245;51.282;22.494;2023-02-01T06:25:20;98156.25;;;0.83;94.69
75650;BME280;64245;51.282;22.494;2023-02-01T06:27:46;98146.38;;;0.85;94.96
75650;BME280;64245;51.282;22.494;2023-02-01T06:30:13;98153.16;;;0.89;94.44
75650;BME280;64245;51.282;22.494;2023-02-01T06:32:41;98150.31;;;0.80;94.94
75650;BME280;64245;51.282;22.494;2023-02-01T06:35:08;98153.91;;;0.79;93.57
75650;BME280;64245;51.282;22.494;2023-02-01T06:37:37;98161.75;;;0.80;94.90
75650;BME280;64245;51.282;22.494;2023-02-01T06:40:03;98157.59;;;0.89;92.93
75650;BME280;64245;51.282;22.494;2023-02-01T06:42:29;98156.13;;;0.85;93.51
75650;BME280;64245;51.282;22.494;2023-02-01T06:44:55;98184.13;;;0.89;93.87
75650;BME280;64245;51.282;22.494;2023-02-01T06:47:20;98170.53;;;0.93;93.44
75650;BME280;64245;51.282;22.494;2023-02-01T06:49:46;98177.63;;;0.93;93.21
75650;BME280;64245;51.282;22.494;2023-02-01T06:52:12;98163.47;;;1.05;92.78
75650;BME280;64245;51.282;22.494;2023-02-01T06:54:37;98147.06;;;1.00;92.69
75650;BME280;64245;51.282;22.494;2023-02-01T06:57:03;98165.50;;;1.01;92.94
75650;BME280;64245;51.282;22.494;2023-02-01T06:59:29;98148.53;;;1.04;92.77
75650;BME280;64245;51.282;22.494;2023-02-01T07:01:55;98153.94;;;1.02;92.84
75650;BME280;64245;51.282;22.494;2023-02-01T07:04:20;98155.75;;;1.02;93.50
75650;BME280;64245;51.282;22.494;2023-02-01T07:06:46;98165.16;;;1.06;92.84
75650;BME280;64245;51.282;22.494;2023-02-01T07:09:11;98157.31;;;1.04;92.29
75650;BME280;64245;51.282;22.494;2023-02-01T07:11:39;98168.22;;;1.13;92.65
75650;BME280;64245;51.282;22.494;2023-02-01T07:14:09;98140.69;;;1.02;92.07
75650;BME280;64245;51.282;22.494;2023-02-01T07:16:35;98158.47;;;1.13;92.76
75650;BME280;64245;51.282;22.494;2023-02-01T07:19:00;98159.97;;;1.04;91.67
75650;BME280;64245;51.282;22.494;2023-02-01T07:21:27;98158.16;;;1.05;92.12
75650;BME280;64245;51.282;22.494;2023-02-01T07:23:54;98157.63;;;1.13;91.80
75650;BME280;64245;51.282;22.494;2023-02-01T07:26:19;98166.56;;;1.23;91.66
75650;BME280;64245;51.282;22.494;2023-02-01T07:28:45;98141.81;;;1.11;91.09
75650;BME280;64245;51.282;22.494;2023-02-01T07:31:14;98159.22;;;1.26;90.96
75650;BME280;64245;51.282;22.494;2023-02-01T07:33:41;98165.59;;;1.24;91.45
75650;BME280;64245;51.282;22.494;2023-02-01T07:36:11;98154.66;;;1.28;90.46
75650;BME280;64245;51.282;22.494;2023-02-01T07:38:37;98137.72;;;1.18;91.29
75650;BME280;64245;51.282;22.494;2023-02-01T07:41:04;98155.84;;;1.24;90.51
75650;BME280;64245;51.282;22.494;2023-02-01T07:43:30;98140.78;;;1.25;90.53
75650;BME280;64245;51.282;22.494;2023-02-01T07:45:57;98170.72;;;1.38;90.09
75650;BME280;64245;51.282;22.494;2023-02-01T07:48:23;98144.94;;;1.40;89.15
75650;BME280;64245;51.282;22.494;2023-02-01T07:50:57;98142.16;;;1.42;90.48
75650;BME280;64245;51.282;22.494;2023-02-01T07:53:23;98143.63;;;1.46;89.20
75650;BME280;64245;51.282;22.494;2023-02-01T07:55:49;98142.66;;;1.47;89.10
75650;BME280;64245;51.282;22.494;2023-02-01T07:58:15;98151.59;;;1.46;90.37
75650;BME280;64245;51.282;22.494;2023-02-01T08:00:40;98139.91;;;1.48;89.09
75650;BME280;64245;51.282;22.494;2023-02-01T08:03:24;98135.94;;;1.54;88.68
75650;BME280;64245;51.282;22.494;2023-02-01T08:05:54;98153.31;;;1.58;89.01
75650;BME280;64245;51.282;22.494;2023-02-01T08:08:21;98144.59;;;1.56;88.75
75650;BME280;64245;51.282;22.494;2023-02-01T08:10:47;98137.44;;;1.69;88.02
75650;BME280;64245;51.282;22.494;2023-02-01T08:13:12;98148.78;;;1.71;87.73
75650;BME280;64245;51.282;22.494;2023-02-01T08:15:38;98137.31;;;1.70;88.53
75650;BME280;64245;51.282;22.494;2023-02-01T08:18:03;98124.50;;;1.64;88.21
75650;BME280;64245;51.282;22.494;2023-02-01T08:20:30;98120.91;;;1.77;87.00
75650;BME280;64245;51.282;22.494;2023-02-01T08:22:55;98143.47;;;1.93;86.73
75650;BME280;64245;51.282;22.494;2023-02-01T08:25:22;98135.91;;;2.11;85.96
75650;BME280;64245;51.282;22.494;2023-02-01T08:27:47;98133.09;;;2.13;86.00
75650;BME280;64245;51.282;22.494;2023-02-01T08:30:13;98136.25;;;2.18;85.44
75650;BME280;64245;51.282;22.494;2023-02-01T08:32:39;98137.00;;;2.08;85.49
75650;BME280;64245;51.282;22.494;2023-02-01T08:35:05;98143.50;;;2.04;85.60
75650;BME280;64245;51.282;22.494;2023-02-01T08:37:31;98124.41;;;1.99;85.77
75650;BME280;64245;51.282;22.494;2023-02-01T08:39:57;98150.84;;;2.01;85.08
75650;BME280;64245;51.282;22.494;2023-02-01T08:42:23;98138.06;;;1.84;86.52
75650;BME280;64245;51.282;22.494;2023-02-01T08:45:07;98157.38;;;2.19;85.08
75650;BME280;64245;51.282;22.494;2023-02-01T08:47:33;98147.63;;;2.08;85.18
75650;BME280;64245;51.282;22.494;2023-02-01T08:49:59;98153.03;;;2.18;84.85
75650;BME280;64245;51.282;22.494;2023-02-01T08:52:25;98150.38;;;2.18;84.87
75650;BME280;64245;51.282;22.494;2023-02-01T08:54:51;98130.44;;;2.13;83.94
75650;BME280;64245;51.282;22.494;2023-02-01T08:57:16;98166.19;;;2.20;83.97
75650;BME280;64245;51.282;22.494;2023-02-01T08:59:43;98168.75;;;2.21;82.92
75650;BME280;64245;51.282;22.494;2023-02-01T09:02:14;98131.81;;;2.07;84.01
75650;BME280;64245;51.282;22.494;2023-02-01T09:04:40;98152.56;;;2.24;84.81
75650;BME280;64245;51.282;22.494;2023-02-01T09:07:07;98146.50;;;2.33;81.36
75650;BME280;64245;51.282;22.494;2023-02-01T09:09:33;98124.06;;;2.26;82.21
75650;BME280;64245;51.282;22.494;2023-02-01T09:11:59;98126.50;;;2.29;83.77
75650;BME280;64245;51.282;22.494;2023-02-01T09:14:25;98149.31;;;2.43;82.91
75650;BME280;64245;51.282;22.494;2023-02-01T09:16:50;98151.34;;;2.39;82.49
75650;BME280;64245;51.282;22.494;2023-02-01T09:19:16;98137.47;;;2.25;82.96
75650;BME280;64245;51.282;22.494;2023-02-01T09:21:42;98140.75;;;2.28;83.09
75650;BME280;64245;51.282;22.494;2023-02-01T09:24:10;98138.09;;;2.28;83.44
75650;BME280;64245;51.282;22.494;2023-02-01T09:26:36;98147.72;;;2.40;82.83
75650;BME280;64245;51.282;22.494;2023-02-01T09:29:02;98145.31;;;2.37;83.38
75650;BME280;64245;51.282;22.494;2023-02-01T09:31:29;98152.31;;;2.50;82.20
75650;BME280;64245;51.282;22.494;2023-02-01T09:33:56;98140.47;;;2.31;83.11
75650;BME280;64245;51.282;22.494;2023-02-01T09:36:21;98149.41;;;2.41;82.01
75650;BME280;64245;51.282;22.494;2023-02-01T09:38:49;98139.28;;;2.35;83.04
75650;BME280;64245;51.282;22.494;2023-02-01T09:46:58;98147.34;;;2.56;81.13
75650;BME280;64245;51.282;22.494;2023-02-01T09:49:31;98136.44;;;2.70;81.37
75650;BME280;64245;51.282;22.494;2023-02-01T09:51:59;98148.41;;;2.87;81.37
75650;BME280;64245;51.282;22.494;2023-02-01T09:54:31;98134.22;;;2.98;81.17
75650;BME280;64245;51.282;22.494;2023-02-01T09:57:23;98129.56;;;3.11;80.88
75650;BME280;64245;51.282;22.494;2023-02-01T09:59:56;98117.19;;;2.89;80.65
75650;BME280;64245;51.282;22.494;2023-02-01T10:02:26;98130.44;;;2.68;82.46
75650;BME280;64245;51.282;22.494;2023-02-01T10:04:59;98146.03;;;2.62;84.53
75650;BME280;64245;51.282;22.494;2023-02-01T10:07:50;98134.69;;;2.37;84.98
75650;BME280;64245;51.282;22.494;2023-02-01T10:10:43;98150.16;;;2.21;87.42
75650;BME280;64245;51.282;22.494;2023-02-01T10:13:34;98152.56;;;2.02;88.23
75650;BME280;64245;51.282;22.494;2023-02-01T10:16:21;98144.09;;;1.97;89.08
75650;BME280;64245;51.282;22.494;2023-02-01T10:21:50;98147.34;;;2.00;90.33
75650;BME280;64245;51.282;22.494;2023-02-01T10:27:08;98141.53;;;1.73;91.81
75650;BME280;64245;51.282;22.494;2023-02-01T10:29:40;98131.03;;;1.71;92.78
75650;BME280;64245;51.282;22.494;2023-02-01T10:32:18;98137.66;;;1.77;93.47
75650;BME280;64245;51.282;22.494;2023-02-01T10:34:50;98114.72;;;1.65;92.66
75650;BME280;64245;51.282;22.494;2023-02-01T10:37:30;98131.78;;;1.96;92.62
75650;BME280;64245;51.282;22.494;2023-02-01T10:40:00;98127.31;;;2.19;93.22
75650;BME280;64245;51.282;22.494;2023-02-01T10:42:28;98108.75;;;2.07;92.79
75650;BME280;64245;51.282;22.494;2023-02-01T10:44:57;98105.97;;;2.09;92.14
75650;BME280;64245;51.282;22.494;2023-02-01T10:47:25;98105.34;;;1.94;92.21
75650;BME280;64245;51.282;22.494;2023-02-01T10:49:58;98129.88;;;2.09;92.28
75650;BME280;64245;51.282;22.494;2023-02-01T10:52:45;98113.34;;;2.05;92.20
75650;BME280;64245;51.282;22.494;2023-02-01T10:55:35;98132.03;;;2.15;91.82
75650;BME280;64245;51.282;22.494;2023-02-01T10:58:05;98138.91;;;2.18;90.34
75650;BME280;64245;51.282;22.494;2023-02-01T11:00:41;98122.03;;;2.30;88.91
75650;BME280;64245;51.282;22.494;2023-02-01T11:03:32;98112.59;;;2.37;87.53
75650;BME280;64245;51.282;22.494;2023-02-01T11:05:59;98094.06;;;2.69;87.10
75650;BME280;64245;51.282;22.494;2023-02-01T11:08:26;98096.69;;;2.80;85.77
75650;BME280;64245;51.282;22.494;2023-02-01T11:10:58;98106.09;;;2.84;85.83
75650;BME280;64245;51.282;22.494;2023-02-01T11:13:29;98097.22;;;2.95;84.17
75650;BME280;64245;51.282;22.494;2023-02-01T11:16:01;98086.53;;;2.85;84.03
75650;BME280;64245;51.282;22.494;2023-02-01T11:18:29;98104.00;;;2.99;83.16
75650;BME280;64245;51.282;22.494;2023-02-01T11:20:55;98111.25;;;2.97;82.88
75650;BME280;64245;51.282;22.494;2023-02-01T11:23:23;98112.72;;;2.90;82.14
75650;BME280;64245;51.282;22.494;2023-02-01T11:25:54;98107.41;;;2.90;82.81
75650;BME280;64245;51.282;22.494;2023-02-01T11:28:25;98108.16;;;2.81;83.32
75650;BME280;64245;51.282;22.494;2023-02-01T11:30:54;98104.78;;;2.78;83.36
75650;BME280;64245;51.282;22.494;2023-02-01T11:33:25;98101.00;;;2.92;82.51
75650;BME280;64245;51.282;22.494;2023-02-01T11:35:55;98097.16;;;2.85;82.34
75650;BME280;64245;51.282;22.494;2023-02-01T11:38:30;98099.28;;;3.02;81.90
75650;BME280;64245;51.282;22.494;2023-02-01T11:41:20;98101.63;;;3.17;82.32
75650;BME280;64245;51.282;22.494;2023-02-01T11:43:55;98106.44;;;3.23;81.86
75650;BME280;64245;51.282;22.494;2023-02-01T11:46:31;98097.28;;;3.16;81.16
75650;BME280;64245;51.282;22.494;2023-02-01T11:49:15;98076.13;;;3.14;81.93
75650;BME280;64245;51.282;22.494;2023-02-01T11:57:04;98081.19;;;3.17;82.15
75650;BME280;64245;51.282;22.494;2023-02-01T12:00:01;98081.94;;;3.08;81.64
75650;BME280;64245;51.282;22.494;2023-02-01T12:02:59;98089.25;;;2.95;82.31
75650;BME280;64245;51.282;22.494;2023-02-01T12:08:37;98091.75;;;2.75;82.78
75650;BME280;64245;51.282;22.494;2023-02-01T12:11:16;98095.59;;;2.83;83.06
75650;BME280;64245;51.282;22.494;2023-02-01T12:13:53;98098.50;;;2.80;84.34
75650;BME280;64245;51.282;22.494;2023-02-01T12:16:28;98094.06;;;2.69;83.56
75650;BME280;64245;51.282;22.494;2023-02-01T12:19:18;98100.44;;;2.77;82.77
75650;BME280;64245;51.282;22.494;2023-02-01T12:32:53;98090.16;;;2.73;83.54
75650;BME280;64245;51.282;22.494;2023-02-01T12:35:41;98094.50;;;2.74;84.57
75650;BME280;64245;51.282;22.494;2023-02-01T12:41:35;98091.97;;;2.72;82.59
75650;BME280;64245;51.282;22.494;2023-02-01T12:44:29;98086.78;;;2.71;82.96
75650;BME280;64245;51.282;22.494;2023-02-01T12:47:01;98080.38;;;2.73;83.45
75650;BME280;64245;51.282;22.494;2023-02-01T12:49:41;98095.22;;;2.87;82.91
75650;BME280;64245;51.282;22.494;2023-02-01T12:52:43;98083.41;;;2.80;83.31
75650;BME280;64245;51.282;22.494;2023-02-01T12:57:46;98080.84;;;2.78;83.19
75650;BME280;64245;51.282;22.494;2023-02-01T13:00:21;98076.00;;;2.84;82.63
75650;BME280;64245;51.282;22.494;2023-02-01T13:03:11;98077.81;;;2.83;83.15
75650;BME280;64245;51.282;22.494;2023-02-01T13:05:50;98081.34;;;2.84;82.56
75650;BME280;64245;51.282;22.494;2023-02-01T13:08:22;98090.66;;;2.78;83.37
75650;BME280;64245;51.282;22.494;2023-02-01T13:10:56;98076.81;;;2.63;83.90
75650;BME280;64245;51.282;22.494;2023-02-01T13:16:48;98091.66;;;2.55;85.46
75650;BME280;64245;51.282;22.494;2023-02-01T13:19:29;98082.84;;;2.54;86.05
75650;BME280;64245;51.282;22.494;2023-02-01T13:22:10;98082.03;;;2.42;86.83
75650;BME280;64245;51.282;22.494;2023-02-01T13:24:47;98082.25;;;2.51;86.47
75650;BME280;64245;51.282;22.494;2023-02-01T13:27:15;98096.53;;;2.50;86.99
75650;BME280;64245;51.282;22.494;2023-02-01T13:29:49;98102.09;;;2.47;87.17
75650;BME280;64245;51.282;22.494;2023-02-01T13:32:28;98099.91;;;2.40;87.54
75650;BME280;64245;51.282;22.494;2023-02-01T13:37:44;98107.88;;;2.40;87.18
75650;BME280;64245;51.282;22.494;2023-02-01T13:40:33;98108.34;;;2.34;88.27
75650;BME280;64245;51.282;22.494;2023-02-01T13:43:28;98118.03;;;2.35;88.58
75650;BME280;64245;51.282;22.494;2023-02-01T13:46:04;98114.41;;;2.25;89.12
75650;BME280;64245;51.282;22.494;2023-02-01T13:48:51;98112.72;;;2.35;88.44
75650;BME280;64245;51.282;22.494;2023-02-01T13:51:33;98087.84;;;2.14;88.68
75650;BME280;64245;51.282;22.494;2023-02-01T13:54:00;98090.03;;;2.20;88.65
75650;BME280;64245;51.282;22.494;2023-02-01T13:56:27;98091.47;;;2.24;88.66
75650;BME280;64245;51.282;22.494;2023-02-01T13:58:53;98095.59;;;2.28;88.54
75650;BME280;64245;51.282;22.494;2023-02-01T14:03:59;98102.81;;;2.26;88.15
75650;BME280;64245;51.282;22.494;2023-02-01T14:11:54;98094.25;;;2.23;87.90
75650;BME280;64245;51.282;22.494;2023-02-01T14:19:21;98109.59;;;2.30;87.93
75650;BME280;64245;51.282;22.494;2023-02-01T14:21:53;98094.28;;;2.12;88.68
75650;BME280;64245;51.282;22.494;2023-02-01T14:24:34;98105.47;;;2.15;88.37
75650;BME280;64245;51.282;22.494;2023-02-01T14:27:17;98104.28;;;2.19;88.25
75650;BME280;64245;51.282;22.494;2023-02-01T14:29:50;98090.50;;;2.03;88.92
75650;BME280;64245;51.282;22.494;2023-02-01T14:32:39;98093.91;;;2.05;88.60
75650;BME280;64245;51.282;22.494;2023-02-01T14:35:27;98099.59;;;2.12;89.27